sensor_id;sensor_type;location;lat;lon;timestamp;pressure;altitude;pressure_sealevel;temperature;humidity
24031;BME280;12240;51.142;22.486;2022-10-28T00:01:26;100526.88;;;7.42;100.00
24031;BME280;12240;51.142;22.486;2022-10-28T00:03:58;100565.34;;;7.60;100.00
24031;BME280;12240;51.142;22.486;2022-10-28T00:06:33;100541.19;;;7.27;100.00
24031;BME280;12240;51.142;22.486;2022-10-28T00:09:03;100562.25;;;7.29;100.00
24031;BME280;12240;51.142;22.486;2022-10-28T00:11:38;100549.41;;;7.23;100.00
24031;BME280;12240;51.142;22.486;2022-10-28T00:14:08;100564.19;;;7.39;100.00
24031;BME280;12240;51.142;22.486;2022-10-28T00:16:37;100566.63;;;7.42;100.00
24031;BME280;12240;51.142;22.486;2022-10-28T00:19:07;100563.88;;;7.44;100.00
24031;BME280;12240;51.142;22.486;2022-10-28T00:21:38;100551.88;;;7.38;100.00
24031;BME280;12240;51.142;22.486;2022-10-28T00:24:08;100563.53;;;7.48;100.00
24031;BME280;12240;51.142;22.486;2022-10-28T00:26:39;100566.19;;;7.48;100.00
24031;BME280;12240;51.142;22.486;2022-10-28T00:29:12;100520.06;;;7.13;100.00
24031;BME280;12240;51.142;22.486;2022-10-28T00:31:42;100577.00;;;7.45;100.00
24031;BME280;12240;51.142;22.486;2022-10-28T00:34:14;100553.13;;;7.33;100.00
24031;BME280;12240;51.142;22.486;2022-10-28T00:36:45;100569.56;;;7.25;100.00
24031;BME280;12240;51.142;22.486;2022-10-28T00:39:22;100541.34;;;7.12;100.00
24031;BME280;12240;51.142;22.486;2022-10-28T00:41:58;100515.03;;;6.96;100.00
24031;BME280;12240;51.142;22.486;2022-10-28T00:47:57;100560.88;;;7.23;100.00
24031;BME280;12240;51.142;22.486;2022-10-28T00:50:46;100551.03;;;7.25;100.00
24031;BME280;12240;51.142;22.486;2022-10-28T00:53:25;100509.75;;;6.96;100.00
24031;BME280;12240;51.142;22.486;2022-10-28T00:55:56;100522.56;;;7.02;100.00
24031;BME280;12240;51.142;22.486;2022-10-28T00:58:26;100525.19;;;6.89;100.00
24031;BME280;12240;51.142;22.486;2022-10-28T01:00:55;100503.00;;;6.78;100.00
24031;BME280;12240;51.142;22.486;2022-10-28T01:03:23;100534.16;;;7.14;100.00
24031;BME280;12240;51.142;22.486;2022-10-28T01:05:52;100511.69;;;6.80;100.00
24031;BME280;12240;51.142;22.486;2022-10-28T01:08:20;100541.91;;;6.90;100.00
24031;BME280;12240;51.142;22.486;2022-10-28T01:22:29;100531.09;;;7.20;100.00
24031;BME280;12240;51.142;22.486;2022-10-28T01:25:38;100531.22;;;7.31;100.00
24031;BME280;12240;51.142;22.486;2022-10-28T01:43:25;100532.19;;;7.42;100.00
24031;BME280;12240;51.142;22.486;2022-10-28T01:46:10;100479.69;;;7.09;100.00
24031;BME280;12240;51.142;22.486;2022-10-28T01:48:57;100522.31;;;7.32;100.00
24031;BME280;12240;51.142;22.486;2022-10-28T01:51:39;100491.44;;;7.05;100.00
24031;BME280;12240;51.142;22.486;2022-10-28T01:54:10;100515.28;;;7.18;100.00
24031;BME280;12240;51.142;22.486;2022-10-28T01:56:42;100507.84;;;7.10;100.00
24031;BME280;12240;51.142;22.486;2022-10-28T01:59:17;100492.28;;;7.06;100.00
24031;BME280;12240;51.142;22.486;2022-10-28T02:01:46;100508.72;;;7.11;100.00
24031;BME280;12240;51.142;22.486;2022-10-28T02:04:15;100435.00;;;6.66;100.00
24031;BME280;12240;51.142;22.486;2022-10-28T02:06:46;100463.31;;;6.78;100.00
24031;BME280;12240;51.142;22.486;2022-10-28T02:12:37;100494.72;;;7.09;100.00
24031;BME280;12240;51.142;22.486;2022-10-28T02:21:27;100447.59;;;6.62;100.00
24031;BME280;12240;51.142;22.486;2022-10-28T02:26:45;100466.81;;;6.78;100.00
24031;BME280;12240;51.142;22.486;2022-10-28T02:29:36;100493.31;;;7.03;100.00
24031;BME280;12240;51.142;22.486;2022-10-28T02:32:14;100500.66;;;7.13;100.00
24031;BME280;12240;51.142;22.486;2022-10-28T02:34:46;100511.28;;;7.25;100.00
24031;BME280;12240;51.142;22.486;2022-10-28T02:37:26;100510.53;;;7.23;100.00
24031;BME280;12240;51.142;22.486;2022-10-28T02:39:59;100508.50;;;7.14;100.00
24031;BME280;12240;51.142;22.486;2022-10-28T02:42:34;100492.41;;;7.04;100.00
24031;BME280;12240;51.142;22.486;2022-10-28T02:45:27;100509.56;;;7.24;100.00
24031;BME280;12240;51.142;22.486;2022-10-28T02:48:01;100489.03;;;7.15;100.00
24031;BME280;12240;51.142;22.486;2022-10-28T02:50:35;100495.69;;;7.21;100.00
24031;BME280;12240;51.142;22.486;2022-10-28T02:53:18;100454.09;;;6.83;100.00
24031;BME280;12240;51.142;22.486;2022-10-28T02:55:53;100454.97;;;6.84;100.00
24031;BME280;12240;51.142;22.486;2022-10-28T02:58:24;100485.38;;;6.91;100.00
24031;BME280;12240;51.142;22.486;2022-10-28T03:00:52;100493.44;;;7.02;100.00
24031;BME280;12240;51.142;22.486;2022-10-28T03:03:20;100464.59;;;6.85;100.00
24031;BME280;12240;51.142;22.486;2022-10-28T03:05:48;100450.81;;;6.80;100.00
24031;BME280;12240;51.142;22.486;2022-10-28T03:08:16;100487.97;;;7.05;100.00
24031;BME280;12240;51.142;22.486;2022-10-28T03:10:44;100488.16;;;7.15;100.00
24031;BME280;12240;51.142;22.486;2022-10-28T03:13:12;100450.00;;;6.92;100.00
24031;BME280;12240;51.142;22.486;2022-10-28T03:15:40;100473.44;;;7.10;100.00
24031;BME280;12240;51.142;22.486;2022-10-28T03:18:08;100437.69;;;6.78;100.00
24031;BME280;12240;51.142;22.486;2022-10-28T03:20:36;100485.09;;;7.08;100.00
24031;BME280;12240;51.142;22.486;2022-10-28T03:23:04;100488.34;;;6.99;100.00
24031;BME280;12240;51.142;22.486;2022-10-28T03:25:33;100493.16;;;7.06;100.00
24031;BME280;12240;51.142;22.486;2022-10-28T03:28:01;100481.38;;;6.98;100.00
24031;BME280;12240;51.142;22.486;2022-10-28T03:30:29;100489.22;;;7.12;100.00
24031;BME280;12240;51.142;22.486;2022-10-28T03:32:57;100494.84;;;7.20;100.00
24031;BME280;12240;51.142;22.486;2022-10-28T03:35:25;100496.44;;;7.23;100.00
24031;BME280;12240;51.142;22.486;2022-10-28T03:37:53;100502.59;;;7.23;100.00
24031;BME280;12240;51.142;22.486;2022-10-28T03:40:21;100503.22;;;7.27;100.00
24031;BME280;12240;51.142;22.486;2022-10-28T03:42:50;100482.91;;;7.27;100.00
24031;BME280;12240;51.142;22.486;2022-10-28T03:45:19;100494.13;;;7.43;100.00
24031;BME280;12240;51.142;22.486;2022-10-28T03:47:47;100456.50;;;7.13;100.00
24031;BME280;12240;51.142;22.486;2022-10-28T03:50:16;100494.56;;;7.37;100.00
24031;BME280;12240;51.142;22.486;2022-10-28T03:52:44;100493.59;;;7.38;100.00
24031;BME280;12240;51.142;22.486;2022-10-28T03:55:12;100493.59;;;7.38;100.00
24031;BME280;12240;51.142;22.486;2022-10-28T03:57:40;100498.47;;;7.44;100.00
24031;BME280;12240;51.142;22.486;2022-10-28T04:00:09;100494.88;;;7.45;100.00
24031;BME280;12240;51.142;22.486;2022-10-28T04:02:40;100504.31;;;7.49;100.00
24031;BME280;12240;51.142;22.486;2022-10-28T04:05:08;100493.50;;;7.52;100.00
24031;BME280;12240;51.142;22.486;2022-10-28T04:07:36;100486.69;;;7.48;100.00
24031;BME280;12240;51.142;22.486;2022-10-28T04:10:04;100496.88;;;7.54;100.00
24031;BME280;12240;51.142;22.486;2022-10-28T04:12:33;100497.75;;;7.55;100.00
24031;BME280;12240;51.142;22.486;2022-10-28T04:15:01;100494.34;;;7.53;100.00
24031;BME280;12240;51.142;22.486;2022-10-28T04:17:29;100437.00;;;7.27;100.00
24031;BME280;12240;51.142;22.486;2022-10-28T04:19:57;100455.66;;;7.38;100.00
24031;BME280;12240;51.142;22.486;2022-10-28T04:22:25;100483.31;;;7.59;100.00
24031;BME280;12240;51.142;22.486;2022-10-28T04:24:53;100487.22;;;7.66;100.00
24031;BME280;12240;51.142;22.486;2022-10-28T04:27:21;100486.06;;;7.70;100.00
24031;BME280;12240;51.142;22.486;2022-10-28T04:29:49;100482.66;;;7.68;100.00
24031;BME280;12240;51.142;22.486;2022-10-28T04:32:17;100484.28;;;7.70;100.00
24031;BME280;12240;51.142;22.486;2022-10-28T04:34:45;100484.34;;;7.69;100.00
24031;BME280;12240;51.142;22.486;2022-10-28T04:37:13;100484.16;;;7.72;100.00
24031;BME280;12240;51.142;22.486;2022-10-28T04:39:47;100477.47;;;7.66;100.00
24031;BME280;12240;51.142;22.486;2022-10-28T04:42:15;100451.31;;;7.49;100.00
24031;BME280;12240;51.142;22.486;2022-10-28T04:44:43;100394.72;;;7.25;100.00
24031;BME280;12240;51.142;22.486;2022-10-28T04:47:11;100428.38;;;7.48;100.00
24031;BME280;12240;51.142;22.486;2022-10-28T04:49:39;100477.38;;;7.80;100.00
24031;BME280;12240;51.142;22.486;2022-10-28T04:52:08;100467.06;;;7.76;100.00
24031;BME280;12240;51.142;22.486;2022-10-28T04:54:41;100447.47;;;7.66;100.00
24031;BME280;12240;51.142;22.486;2022-10-28T04:57:09;100477.13;;;7.83;100.00
24031;BME280;12240;51.142;22.486;2022-10-28T04:59:37;100472.34;;;7.88;100.00
24031;BME280;12240;51.142;22.486;2022-10-28T05:02:05;100479.16;;;7.92;100.00
24031;BME280;12240;51.142;22.486;2022-10-28T05:04:34;100431.97;;;7.72;100.00
24031;BME280;12240;51.142;22.486;2022-10-28T05:07:03;100472.44;;;7.99;100.00
24031;BME280;12240;51.142;22.486;2022-10-28T05:09:31;100426.59;;;7.74;100.00
24031;BME280;12240;51.142;22.486;2022-10-28T05:11:59;100481.44;;;8.09;100.00
24031;BME280;12240;51.142;22.486;2022-10-28T05:14:27;100483.13;;;8.10;100.00
24031;BME280;12240;51.142;22.486;2022-10-28T05:16:55;100474.09;;;8.13;100.00
24031;BME280;12240;51.142;22.486;2022-10-28T05:19:23;100427.16;;;7.90;100.00
24031;BME280;12240;51.142;22.486;2022-10-28T05:21:52;100472.19;;;8.15;100.00
24031;BME280;12240;51.142;22.486;2022-10-28T05:24:20;100474.00;;;8.14;100.00
24031;BME280;12240;51.142;22.486;2022-10-28T05:26:48;100471.97;;;8.18;100.00
24031;BME280;12240;51.142;22.486;2022-10-28T05:29:17;100457.34;;;8.12;100.00
24031;BME280;12240;51.142;22.486;2022-10-28T05:31:46;100431.19;;;7.95;100.00
24031;BME280;12240;51.142;22.486;2022-10-28T05:34:14;100415.50;;;7.92;100.00
24031;BME280;12240;51.142;22.486;2022-10-28T05:36:42;100466.53;;;8.19;100.00
24031;BME280;12240;51.142;22.486;2022-10-28T05:39:10;100467.09;;;8.24;100.00
24031;BME280;12240;51.142;22.486;2022-10-28T05:41:40;100461.25;;;8.19;100.00
24031;BME280;12240;51.142;22.486;2022-10-28T05:44:08;100439.66;;;8.00;100.00
24031;BME280;12240;51.142;22.486;2022-10-28T05:46:36;100429.91;;;8.01;100.00
24031;BME280;12240;51.142;22.486;2022-10-28T05:49:04;100479.06;;;8.30;100.00
24031;BME280;12240;51.142;22.486;2022-10-28T05:51:32;100418.91;;;7.94;100.00
24031;BME280;12240;51.142;22.486;2022-10-28T05:54:00;100422.06;;;7.99;100.00
24031;BME280;12240;51.142;22.486;2022-10-28T05:56:28;100476.94;;;8.35;100.00
24031;BME280;12240;51.142;22.486;2022-10-28T05:58:56;100478.50;;;8.38;100.00
24031;BME280;12240;51.142;22.486;2022-10-28T06:01:24;100466.94;;;8.39;100.00
24031;BME280;12240;51.142;22.486;2022-10-28T06:03:52;100430.81;;;8.25;100.00
24031;BME280;12240;51.142;22.486;2022-10-28T06:06:20;100476.53;;;8.52;100.00
24031;BME280;12240;51.142;22.486;2022-10-28T06:08:48;100475.88;;;8.61;100.00
24031;BME280;12240;51.142;22.486;2022-10-28T06:11:16;100482.53;;;8.67;100.00
24031;BME280;12240;51.142;22.486;2022-10-28T06:13:45;100479.41;;;8.73;100.00
24031;BME280;12240;51.142;22.486;2022-10-28T06:16:13;100487.66;;;8.81;100.00
24031;BME280;12240;51.142;22.486;2022-10-28T06:18:41;100483.53;;;8.77;100.00
24031;BME280;12240;51.142;22.486;2022-10-28T06:21:10;100474.84;;;8.75;100.00
24031;BME280;12240;51.142;22.486;2022-10-28T06:23:38;100469.53;;;8.75;100.00
24031;BME280;12240;51.142;22.486;2022-10-28T06:26:06;100464.09;;;8.76;100.00
24031;BME280;12240;51.142;22.486;2022-10-28T06:28:34;100434.44;;;8.59;100.00
24031;BME280;12240;51.142;22.486;2022-10-28T06:31:06;100438.84;;;8.71;100.00
24031;BME280;12240;51.142;22.486;2022-10-28T06:33:35;100478.81;;;9.04;100.00
24031;BME280;12240;51.142;22.486;2022-10-28T06:36:04;100443.53;;;8.91;100.00
24031;BME280;12240;51.142;22.486;2022-10-28T06:38:31;100477.25;;;9.12;100.00
24031;BME280;12240;51.142;22.486;2022-10-28T06:40:59;100478.75;;;9.16;100.00
24031;BME280;12240;51.142;22.486;2022-10-28T06:43:27;100437.69;;;8.86;100.00
24031;BME280;12240;51.142;22.486;2022-10-28T06:46:03;100452.97;;;9.06;100.00
24031;BME280;12240;51.142;22.486;2022-10-28T06:48:33;100418.78;;;9.01;100.00
24031;BME280;12240;51.142;22.486;2022-10-28T06:51:01;100476.81;;;9.29;100.00
24031;BME280;12240;51.142;22.486;2022-10-28T06:53:29;100471.38;;;9.31;100.00
24031;BME280;12240;51.142;22.486;2022-10-28T06:55:57;100473.78;;;9.23;100.00
24031;BME280;12240;51.142;22.486;2022-10-28T06:58:26;100479.47;;;9.29;100.00
24031;BME280;12240;51.142;22.486;2022-10-28T07:00:54;100362.03;;;8.57;100.00
24031;BME280;12240;51.142;22.486;2022-10-28T07:03:22;100451.56;;;9.13;100.00
24031;BME280;12240;51.142;22.486;2022-10-28T07:05:50;100488.56;;;9.38;100.00
24031;BME280;12240;51.142;22.486;2022-10-28T07:08:18;100489.06;;;9.54;100.00
24031;BME280;12240;51.142;22.486;2022-10-28T07:10:58;100477.69;;;9.63;100.00
24031;BME280;12240;51.142;22.486;2022-10-28T07:13:26;100448.31;;;9.42;100.00
24031;BME280;12240;51.142;22.486;2022-10-28T07:15:57;100470.44;;;9.87;100.00
24031;BME280;12240;51.142;22.486;2022-10-28T07:18:28;100443.66;;;9.68;100.00
24031;BME280;12240;51.142;22.486;2022-10-28T07:21:00;100497.09;;;10.09;100.00
24031;BME280;12240;51.142;22.486;2022-10-28T07:23:28;100457.75;;;9.91;100.00
24031;BME280;12240;51.142;22.486;2022-10-28T07:26:00;100465.78;;;10.13;100.00
24031;BME280;12240;51.142;22.486;2022-10-28T07:28:28;100489.09;;;10.20;100.00
24031;BME280;12240;51.142;22.486;2022-10-28T07:31:01;100497.16;;;10.41;100.00
24031;BME280;12240;51.142;22.486;2022-10-28T07:33:29;100506.69;;;10.54;100.00
24031;BME280;12240;51.142;22.486;2022-10-28T07:35:57;100496.22;;;10.74;100.00
24031;BME280;12240;51.142;22.486;2022-10-28T07:38:25;100451.94;;;10.73;100.00
24031;BME280;12240;51.142;22.486;2022-10-28T07:40:53;100481.03;;;11.17;100.00
24031;BME280;12240;51.142;22.486;2022-10-28T07:43:21;100470.53;;;11.04;100.00
24031;BME280;12240;51.142;22.486;2022-10-28T07:45:58;100407.38;;;10.95;100.00
24031;BME280;12240;51.142;22.486;2022-10-28T07:48:27;100471.84;;;11.51;100.00
24031;BME280;12240;51.142;22.486;2022-10-28T07:50:55;100468.72;;;11.66;100.00
24031;BME280;12240;51.142;22.486;2022-10-28T07:53:23;100475.66;;;11.79;100.00
24031;BME280;12240;51.142;22.486;2022-10-28T07:56:04;100464.34;;;11.96;100.00
24031;BME280;12240;51.142;22.486;2022-10-28T07:58:33;100470.34;;;12.18;100.00
24031;BME280;12240;51.142;22.486;2022-10-28T08:01:06;100466.13;;;12.16;100.00
24031;BME280;12240;51.142;22.486;2022-10-28T08:03:35;100479.06;;;12.30;100.00
24031;BME280;12240;51.142;22.486;2022-10-28T08:06:12;100442.69;;;12.38;100.00
24031;BME280;12240;51.142;22.486;2022-10-28T08:08:44;100479.44;;;12.74;100.00
24031;BME280;12240;51.142;22.486;2022-10-28T08:11:14;100482.28;;;12.82;100.00
24031;BME280;12240;51.142;22.486;2022-10-28T08:13:43;100461.59;;;13.04;100.00
24031;BME280;12240;51.142;22.486;2022-10-28T08:16:11;100427.94;;;12.91;100.00
24031;BME280;12240;51.142;22.486;2022-10-28T08:18:40;100450.22;;;13.21;100.00
24031;BME280;12240;51.142;22.486;2022-10-28T08:21:09;100443.56;;;13.25;100.00
24031;BME280;12240;51.142;22.486;2022-10-28T08:23:38;100398.44;;;13.03;100.00
24031;BME280;12240;51.142;22.486;2022-10-28T08:26:07;100440.78;;;13.63;100.00
24031;BME280;12240;51.142;22.486;2022-10-28T08:28:34;100437.94;;;13.74;100.00
24031;BME280;12240;51.142;22.486;2022-10-28T08:31:04;100436.38;;;13.81;100.00
24031;BME280;12240;51.142;22.486;2022-10-28T08:33:41;100427.75;;;13.87;100.00
24031;BME280;12240;51.142;22.486;2022-10-28T08:36:14;100387.28;;;13.90;100.00
24031;BME280;12240;51.142;22.486;2022-10-28T08:38:44;100425.81;;;14.34;100.00
24031;BME280;12240;51.142;22.486;2022-10-28T08:48:32;100397.56;;;14.74;100.00
24031;BME280;12240;51.142;22.486;2022-10-28T08:51:19;100355.78;;;14.46;100.00
24031;BME280;12240;51.142;22.486;2022-10-28T08:53:59;100381.75;;;14.63;100.00
24031;BME280;12240;51.142;22.486;2022-10-28T08:56:40;100362.44;;;14.42;100.00
24031;BME280;12240;51.142;22.486;2022-10-28T08:59:21;100382.72;;;14.62;100.00
24031;BME280;12240;51.142;22.486;2022-10-28T09:01:56;100335.91;;;14.74;100.00
24031;BME280;12240;51.142;22.486;2022-10-28T09:04:41;100362.94;;;14.81;100.00
24031;BME280;12240;51.142;22.486;2022-10-28T09:07:31;100288.66;;;14.73;100.00
24031;BME280;12240;51.142;22.486;2022-10-28T09:10:00;100308.19;;;15.17;100.00
24031;BME280;12240;51.142;22.486;2022-10-28T09:18:25;100350.81;;;15.79;100.00
24031;BME280;12240;51.142;22.486;2022-10-28T09:21:02;100346.13;;;15.81;100.00
24031;BME280;12240;51.142;22.486;2022-10-28T09:23:35;100311.81;;;15.59;100.00
24031;BME280;12240;51.142;22.486;2022-10-28T09:27:06;100349.44;;;15.67;100.00
24031;BME280;12240;51.142;22.486;2022-10-28T09:29:44;100353.06;;;15.92;100.00
24031;BME280;12240;51.142;22.486;2022-10-28T09:33:02;100342.72;;;16.21;100.00
24031;BME280;12240;51.142;22.486;2022-10-28T09:35:39;100342.25;;;16.33;100.00
24031;BME280;12240;51.142;22.486;2022-10-28T09:38:15;100330.31;;;16.20;100.00
24031;BME280;12240;51.142;22.486;2022-10-28T09:40:57;100313.84;;;16.31;100.00
24031;BME280;12240;51.142;22.486;2022-10-28T09:43:32;100321.91;;;16.39;100.00
24031;BME280;12240;51.142;22.486;2022-10-28T09:46:15;100273.88;;;16.44;100.00
24031;BME280;12240;51.142;22.486;2022-10-28T09:51:49;100290.16;;;16.99;100.00
24031;BME280;12240;51.142;22.486;2022-10-28T09:54:27;100261.25;;;17.39;100.00
24031;BME280;12240;51.142;22.486;2022-10-28T09:56:57;100285.19;;;17.73;100.00
24031;BME280;12240;51.142;22.486;2022-10-28T09:59:25;100271.34;;;17.45;100.00
24031;BME280;12240;51.142;22.486;2022-10-28T10:01:54;100250.16;;;17.51;100.00
24031;BME280;12240;51.142;22.486;2022-10-28T10:04:24;100257.41;;;17.34;100.00
24031;BME280;12240;51.142;22.486;2022-10-28T10:07:04;100243.00;;;17.19;100.00
24031;BME280;12240;51.142;22.486;2022-10-28T10:09:36;100269.16;;;17.49;100.00
24031;BME280;12240;51.142;22.486;2022-10-28T10:12:08;100220.00;;;17.08;100.00
24031;BME280;12240;51.142;22.486;2022-10-28T10:14:49;100254.41;;;17.29;100.00
24031;BME280;12240;51.142;22.486;2022-10-28T10:17:23;100260.31;;;17.16;100.00
24031;BME280;12240;51.142;22.486;2022-10-28T10:20:08;100211.00;;;16.85;100.00
24031;BME280;12240;51.142;22.486;2022-10-28T10:22:42;100239.50;;;17.10;100.00
24031;BME280;12240;51.142;22.486;2022-10-28T10:27:56;100180.91;;;16.74;100.00
24031;BME280;12240;51.142;22.486;2022-10-28T10:30:51;100238.88;;;17.00;100.00
24031;BME280;12240;51.142;22.486;2022-10-28T10:33:38;100226.28;;;16.85;100.00
24031;BME280;12240;51.142;22.486;2022-10-28T10:38:55;100210.22;;;16.61;100.00
24031;BME280;12240;51.142;22.486;2022-10-28T10:41:42;100184.16;;;16.45;100.00
24031;BME280;12240;51.142;22.486;2022-10-28T10:44:32;100204.50;;;16.48;100.00
24031;BME280;12240;51.142;22.486;2022-10-28T10:49:36;100122.75;;;15.94;100.00
24031;BME280;12240;51.142;22.486;2022-10-28T10:52:21;100188.53;;;16.30;100.00
24031;BME280;12240;51.142;22.486;2022-10-28T10:55:07;100156.63;;;16.03;100.00
24031;BME280;12240;51.142;22.486;2022-10-28T10:57:46;100183.50;;;16.35;100.00
24031;BME280;12240;51.142;22.486;2022-10-28T11:00:17;100198.63;;;16.52;100.00
24031;BME280;12240;51.142;22.486;2022-10-28T11:02:47;100148.88;;;16.40;100.00
24031;BME280;12240;51.142;22.486;2022-10-28T11:05:23;100176.25;;;16.68;100.00
24031;BME280;12240;51.142;22.486;2022-10-28T11:08:02;100176.22;;;16.76;100.00
24031;BME280;12240;51.142;22.486;2022-10-28T11:10:33;100183.75;;;16.80;100.00
24031;BME280;12240;51.142;22.486;2022-10-28T11:13:24;100189.09;;;16.96;100.00
24031;BME280;12240;51.142;22.486;2022-10-28T11:16:04;100188.31;;;17.26;100.00
24031;BME280;12240;51.142;22.486;2022-10-28T11:18:45;100176.56;;;17.19;100.00
24031;BME280;12240;51.142;22.486;2022-10-28T11:21:23;100181.44;;;17.55;100.00
24031;BME280;12240;51.142;22.486;2022-10-28T11:26:41;100129.09;;;18.02;100.00
24031;BME280;12240;51.142;22.486;2022-10-28T11:29:13;100139.09;;;17.94;100.00
24031;BME280;12240;51.142;22.486;2022-10-28T11:35:08;100159.31;;;18.12;100.00
24031;BME280;12240;51.142;22.486;2022-10-28T11:55:44;100169.16;;;18.05;100.00
24031;BME280;12240;51.142;22.486;2022-10-28T12:16:18;100141.47;;;17.89;100.00
24031;BME280;12240;51.142;22.486;2022-10-28T12:19:00;100122.28;;;17.69;100.00
24031;BME280;12240;51.142;22.486;2022-10-28T12:21:40;100089.91;;;17.24;100.00
24031;BME280;12240;51.142;22.486;2022-10-28T12:24:16;100117.25;;;17.35;100.00
24031;BME280;12240;51.142;22.486;2022-10-28T12:27:01;100153.94;;;17.36;100.00
24031;BME280;12240;51.142;22.486;2022-10-28T12:29:37;100128.75;;;17.29;100.00
24031;BME280;12240;51.142;22.486;2022-10-28T12:32:12;100134.38;;;17.51;100.00
24031;BME280;12240;51.142;22.486;2022-10-28T12:35:22;100128.63;;;17.76;100.00
24031;BME280;12240;51.142;22.486;2022-10-28T12:38:05;100127.88;;;17.82;100.00
24031;BME280;12240;51.142;22.486;2022-10-28T12:40:43;100073.44;;;17.50;100.00
24031;BME280;12240;51.142;22.486;2022-10-28T12:43:31;100123.34;;;17.83;100.00
24031;BME280;12240;51.142;22.486;2022-10-28T12:46:01;100126.53;;;17.86;100.00
24031;BME280;12240;51.142;22.486;2022-10-28T12:48:39;100117.28;;;18.03;100.00
24031;BME280;12240;51.142;22.486;2022-10-28T12:51:36;100119.84;;;18.19;100.00
24031;BME280;12240;51.142;22.486;2022-10-28T12:54:29;100106.16;;;18.21;100.00
24031;BME280;12240;51.142;22.486;2022-10-28T12:57:13;100068.66;;;17.97;100.00
24031;BME280;12240;51.142;22.486;2022-10-28T12:59:53;100087.25;;;17.92;100.00
24031;BME280;12240;51.142;22.486;2022-10-28T13:02:38;100105.00;;;18.01;100.00
24031;BME280;12240;51.142;22.486;2022-10-28T13:05:23;100091.28;;;18.10;100.00
24031;BME280;12240;51.142;22.486;2022-10-28T13:11:04;100082.72;;;18.07;100.00
24031;BME280;12240;51.142;22.486;2022-10-28T13:17:19;100092.25;;;17.95;100.00
24031;BME280;12240;51.142;22.486;2022-10-28T13:25:57;100079.94;;;18.15;100.00
24031;BME280;12240;51.142;22.486;2022-10-28T13:28:32;100036.56;;;17.73;100.00
24031;BME280;12240;51.142;22.486;2022-10-28T13:31:05;100073.97;;;18.05;100.00
24031;BME280;12240;51.142;22.486;2022-10-28T13:33:36;100062.53;;;17.88;100.00
24031;BME280;12240;51.142;22.486;2022-10-28T13:36:27;99984.34;;;17.36;100.00
24031;BME280;12240;51.142;22.486;2022-10-28T13:38:59;100059.31;;;17.70;100.00
24031;BME280;12240;51.142;22.486;2022-10-28T13:52:44;100081.03;;;17.69;100.00
24031;BME280;12240;51.142;22.486;2022-10-28T13:58:02;100074.28;;;17.50;100.00
24031;BME280;12240;51.142;22.486;2022-10-28T14:03:00;100068.94;;;17.42;100.00
24031;BME280;12240;51.142;22.486;2022-10-28T14:08:07;100040.31;;;17.18;100.00
24031;BME280;12240;51.142;22.486;2022-10-28T14:11:22;100080.94;;;17.31;100.00
24031;BME280;12240;51.142;22.486;2022-10-28T14:13:59;100079.91;;;17.32;100.00
24031;BME280;12240;51.142;22.486;2022-10-28T14:16:32;100034.25;;;17.16;100.00
24031;BME280;12240;51.142;22.486;2022-10-28T14:19:17;100072.16;;;17.37;100.00
24031;BME280;12240;51.142;22.486;2022-10-28T14:22:07;100060.09;;;17.33;100.00
24031;BME280;12240;51.142;22.486;2022-10-28T14:24:41;100069.81;;;17.34;100.00
24031;BME280;12240;51.142;22.486;2022-10-28T14:29:48;100071.78;;;17.18;100.00
24031;BME280;12240;51.142;22.486;2022-10-28T14:40:49;100042.66;;;16.60;100.00
24031;BME280;12240;51.142;22.486;2022-10-28T14:43:46;100064.72;;;16.48;100.00
24031;BME280;12240;51.142;22.486;2022-10-28T14:50:05;100048.03;;;15.89;100.00
24031;BME280;12240;51.142;22.486;2022-10-28T14:52:36;100059.47;;;15.83;100.00
24031;BME280;12240;51.142;22.486;2022-10-28T14:55:07;100080.94;;;15.83;100.00
24031;BME280;12240;51.142;22.486;2022-10-28T14:57:46;99970.03;;;15.10;100.00
24031;BME280;12240;51.142;22.486;2022-10-28T15:00:19;100048.56;;;15.53;100.00
24031;BME280;12240;51.142;22.486;2022-10-28T15:02:47;100077.28;;;15.68;100.00
24031;BME280;12240;51.142;22.486;2022-10-28T15:05:20;100083.13;;;15.64;100.00
24031;BME280;12240;51.142;22.486;2022-10-28T15:07:48;100079.78;;;15.46;100.00
24031;BME280;12240;51.142;22.486;2022-10-28T15:10:28;100013.09;;;15.01;100.00
24031;BME280;12240;51.142;22.486;2022-10-28T15:12:59;100098.47;;;15.30;100.00
24031;BME280;12240;51.142;22.486;2022-10-28T15:15:31;100105.84;;;15.19;100.00
24031;BME280;12240;51.142;22.486;2022-10-28T15:18:00;100083.34;;;15.04;100.00
24031;BME280;12240;51.142;22.486;2022-10-28T15:20:32;100102.66;;;15.08;100.00
24031;BME280;12240;51.142;22.486;2022-10-28T15:23:17;100107.13;;;14.99;100.00
24031;BME280;12240;51.142;22.486;2022-10-28T15:26:14;100114.94;;;14.85;100.00
24031;BME280;12240;51.142;22.486;2022-10-28T15:28:42;100073.28;;;14.57;100.00
24031;BME280;12240;51.142;22.486;2022-10-28T15:31:10;100088.22;;;14.67;100.00
24031;BME280;12240;51.142;22.486;2022-10-28T15:33:40;100104.16;;;14.69;100.00
24031;BME280;12240;51.142;22.486;2022-10-28T15:36:14;100059.66;;;14.42;100.00
24031;BME280;12240;51.142;22.486;2022-10-28T15:44:23;100081.63;;;14.46;100.00
24031;BME280;12240;51.142;22.486;2022-10-28T15:46:53;100045.78;;;14.21;100.00
24031;BME280;12240;51.142;22.486;2022-10-28T15:49:38;100045.47;;;13.98;100.00